createdAt,value
2018-01-29T00:00:04.812Z,81.90
2018-01-29T00:01:04.806Z,81.71
2018-01-29T00:02:04.800Z,81.90
2018-01-29T00:03:04.794Z,81.81
2018-01-29T00:04:04.791Z,82.28
2018-01-29T00:05:04.785Z,82.09
2018-01-29T00:06:04.779Z,82.18
2018-01-29T00:07:04.773Z,82.09
2018-01-29T00:08:04.769Z,81.99
2018-01-29T00:09:04.763Z,82.37
2018-01-29T00:10:04.757Z,82.28
2018-01-29T00:11:04.752Z,82.28
2018-01-29T00:12:04.746Z,82.75
2018-01-29T00:13:04.741Z,82.75
2018-01-29T00:14:04.735Z,82.94
2018-01-29T00:15:04.731Z,82.94
2018-01-29T00:16:04.725Z,82.85
2018-01-29T00:17:04.718Z,82.75
2018-01-29T00:18:04.713Z,82.56
2018-01-29T00:19:04.707Z,82.94
2018-01-29T00:20:04.708Z,82.47
2018-01-29T00:21:04.697Z,82.47
2018-01-29T00:22:04.690Z,82.56
2018-01-29T00:23:04.686Z,82.28
2018-01-29T00:24:04.680Z,82.37
2018-01-29T00:25:04.674Z,82.47
2018-01-29T00:26:04.668Z,82.37
2018-01-29T00:27:04.662Z,82.75
2018-01-29T00:28:04.658Z,83.13
2018-01-29T00:29:04.655Z,83.13
2018-01-29T00:30:04.646Z,83.13
2018-01-29T00:31:04.641Z,82.66
2018-01-29T00:32:04.636Z,82.85
2018-01-29T00:33:04.631Z,82.94
2018-01-29T00:34:04.624Z,82.37
2018-01-29T00:35:04.620Z,82.85
2018-01-29T00:36:04.614Z,82.94
2018-01-29T00:37:04.609Z,83.13
2018-01-29T00:38:04.603Z,83.42
2018-01-29T00:39:04.598Z,83.04
2018-01-29T00:40:04.593Z,83.98
2018-01-29T00:41:04.587Z,83.70
2018-01-29T00:42:04.581Z,83.85
2018-01-29T00:43:04.575Z,84.17
2018-01-29T00:44:04.569Z,84.27
2018-01-29T00:45:04.564Z,84.08
2018-01-29T00:46:04.558Z,83.61
2018-01-29T00:47:04.553Z,83.61
2018-01-29T00:48:04.548Z,83.51
2018-01-29T00:49:04.542Z,83.32
2018-01-29T00:50:04.535Z,83.23
2018-01-29T00:51:04.530Z,82.66
2018-01-29T00:52:04.525Z,82.85
2018-01-29T00:53:04.519Z,82.75
2018-01-29T00:54:04.512Z,82.75
2018-01-29T00:55:04.510Z,82.85
2018-01-29T00:56:04.504Z,83.04
2018-01-29T00:57:04.498Z,82.94
2018-01-29T00:58:04.492Z,82.66
2018-01-29T00:59:04.486Z,83.23
2018-01-29T01:00:04.481Z,82.75
2018-01-29T01:01:04.475Z,83.04
2018-01-29T01:02:04.469Z,82.85
2018-01-29T01:03:04.465Z,82.85
2018-01-29T01:04:04.458Z,82.85
2018-01-29T01:05:04.454Z,82.94
2018-01-29T01:06:04.448Z,83.23
2018-01-29T01:07:04.441Z,83.32
2018-01-29T01:08:04.438Z,83.04
2018-01-29T01:09:04.431Z,83.04
2018-01-29T01:10:04.426Z,83.42
2018-01-29T01:11:04.421Z,82.94
2018-01-29T01:12:04.419Z,83.23
2018-01-29T01:13:04.409Z,82.75
2018-01-29T01:14:04.404Z,82.75
2018-01-29T01:15:04.398Z,83.04
2018-01-29T01:16:04.391Z,83.04
2018-01-29T01:17:04.387Z,82.66
2018-01-29T01:18:04.383Z,82.85
2018-01-29T01:19:04.378Z,82.94
2018-01-29T01:20:04.370Z,82.75
2018-01-29T01:21:04.368Z,83.13
2018-01-29T01:22:04.357Z,82.94
2018-01-29T01:23:04.354Z,82.85
2018-01-29T01:24:04.347Z,83.23
2018-01-29T01:25:04.344Z,82.94
2018-01-29T01:26:04.337Z,82.85
2018-01-29T01:27:04.330Z,82.94
2018-01-29T01:28:04.325Z,83.42
2018-01-29T01:29:04.320Z,83.04
2018-01-29T01:30:04.315Z,83.51
2018-01-29T01:31:04.309Z,83.61
2018-01-29T01:32:04.304Z,83.23
2018-01-29T01:33:04.299Z,83.61
2018-01-29T01:34:04.292Z,83.89
2018-01-29T01:35:04.287Z,84.08
2018-01-29T01:36:04.280Z,84.70
2018-01-29T01:37:04.277Z,84.42
2018-01-29T01:38:04.269Z,84.99
2018-01-29T01:39:04.263Z,85.17
2018-01-29T01:40:04.259Z,85.55
2018-01-29T01:41:04.258Z,85.65
2018-01-29T01:42:04.247Z,85.55
2018-01-29T01:43:04.241Z,85.65
2018-01-29T01:44:04.236Z,85.84
2018-01-29T01:45:04.229Z,85.74
2018-01-29T01:46:04.225Z,86.03
2018-01-29T01:47:04.218Z,86.03
2018-01-29T01:48:04.211Z,86.03
2018-01-29T01:49:04.207Z,86.12
2018-01-29T01:50:04.200Z,86.03
2018-01-29T01:51:04.194Z,85.93
2018-01-29T01:52:04.187Z,85.46
2018-01-29T01:53:04.181Z,85.46
2018-01-29T01:54:04.176Z,85.65
2018-01-29T01:55:04.169Z,85.65
2018-01-29T01:56:04.164Z,84.80
2018-01-29T01:57:04.157Z,84.99
2018-01-29T01:58:04.152Z,84.32
2018-01-29T01:59:04.145Z,84.51
2018-01-29T02:00:04.144Z,84.42
2018-01-29T02:01:04.135Z,85.13
2018-01-29T02:02:04.128Z,83.89
2018-01-29T02:03:04.123Z,83.89
2018-01-29T02:04:04.117Z,84.08
2018-01-29T02:05:04.112Z,84.08
2018-01-29T02:06:04.105Z,83.51
2018-01-29T02:07:04.104Z,83.42
2018-01-29T02:08:04.094Z,83.13
2018-01-29T02:09:04.089Z,83.32
2018-01-29T02:10:04.082Z,83.04
2018-01-29T02:11:04.076Z,82.75
2018-01-29T02:12:04.069Z,82.94
2018-01-29T02:13:04.064Z,82.94
2018-01-29T02:14:04.058Z,82.94
2018-01-29T02:15:04.053Z,82.94
2018-01-29T02:16:04.047Z,83.04
2018-01-29T02:17:04.042Z,82.85
2018-01-29T02:18:04.035Z,83.04
2018-01-29T02:19:04.030Z,82.66
2018-01-29T02:20:04.024Z,83.13
2018-01-29T02:21:04.018Z,83.51
2018-01-29T02:22:04.012Z,83.32
2018-01-29T02:23:04.005Z,83.61
2018-01-29T02:24:04.004Z,84.04
2018-01-29T02:25:03.996Z,83.94
2018-01-29T02:26:03.988Z,84.89
2018-01-29T02:27:03.983Z,84.94
2018-01-29T02:28:03.978Z,84.51
2018-01-29T02:29:03.971Z,84.65
2018-01-29T02:30:03.965Z,83.98
2018-01-29T02:31:03.959Z,84.17
2018-01-29T02:32:03.961Z,84.17
2018-01-29T02:33:03.949Z,83.89
2018-01-29T02:34:03.940Z,84.08
2018-01-29T02:35:03.935Z,84.27
2018-01-29T02:36:03.931Z,84.36
2018-01-29T02:37:03.925Z,84.27
2018-01-29T02:38:03.917Z,84.27
2018-01-29T02:39:03.913Z,84.17
2018-01-29T02:40:03.906Z,83.89
2018-01-29T02:41:03.899Z,83.61
2018-01-29T02:42:03.901Z,83.70
2018-01-29T02:43:03.888Z,83.32
2018-01-29T02:44:03.886Z,83.23
2018-01-29T02:45:03.876Z,83.42
2018-01-29T02:46:03.870Z,83.13
2018-01-29T02:47:03.865Z,82.94
2018-01-29T02:48:03.860Z,83.04
2018-01-29T02:49:03.857Z,83.13
2018-01-29T02:50:03.848Z,82.94
2018-01-29T02:51:03.843Z,83.32
2018-01-29T02:52:03.835Z,82.75
2018-01-29T02:53:03.829Z,82.94
2018-01-29T02:54:03.824Z,83.04
2018-01-29T02:55:03.819Z,82.66
2018-01-29T02:56:03.813Z,83.23
2018-01-29T02:57:03.806Z,83.32
2018-01-29T02:58:03.801Z,83.98
2018-01-29T02:59:03.794Z,83.70
2018-01-29T03:00:03.790Z,83.80
2018-01-29T03:01:03.783Z,83.98
2018-01-29T03:02:03.778Z,83.13
2018-01-29T03:03:03.772Z,83.23
2018-01-29T03:04:03.765Z,83.42
2018-01-29T03:05:03.761Z,83.04
2018-01-29T03:06:03.755Z,82.75
2018-01-29T03:07:03.749Z,83.13
2018-01-29T03:08:03.744Z,83.13
2018-01-29T03:09:03.736Z,82.75
2018-01-29T03:10:03.731Z,82.75
2018-01-29T03:11:03.725Z,82.75
2018-01-29T03:12:03.720Z,83.04
2018-01-29T03:13:03.713Z,82.94
2018-01-29T03:14:03.708Z,83.04
2018-01-29T03:15:03.702Z,83.61
2018-01-29T03:16:03.697Z,83.04
2018-01-29T03:17:03.692Z,82.94
2018-01-29T03:18:03.685Z,83.32
2018-01-29T03:19:03.679Z,83.42
2018-01-29T03:20:03.674Z,83.23
2018-01-29T03:21:03.669Z,83.32
2018-01-29T03:22:03.661Z,83.98
2018-01-29T03:23:03.657Z,83.32
2018-01-29T03:24:03.651Z,83.23
2018-01-29T03:25:03.646Z,83.61
2018-01-29T03:26:03.639Z,83.42
2018-01-29T03:27:03.634Z,82.85
2018-01-29T03:28:03.628Z,82.94
2018-01-29T03:29:03.622Z,83.32
2018-01-29T03:30:03.617Z,82.94
2018-01-29T03:31:03.611Z,83.13
2018-01-29T03:32:03.605Z,83.70
2018-01-29T03:33:03.598Z,84.13
2018-01-29T03:34:03.593Z,84.23
2018-01-29T03:35:03.586Z,83.94
2018-01-29T03:36:03.582Z,84.13
2018-01-29T03:37:03.576Z,84.42
2018-01-29T03:38:03.570Z,84.23
2018-01-29T03:39:03.563Z,84.42
2018-01-29T03:40:03.558Z,84.51
2018-01-29T03:41:03.553Z,84.42
2018-01-29T03:42:03.545Z,83.85
2018-01-29T03:43:03.540Z,84.23
2018-01-29T03:44:03.535Z,84.23
2018-01-29T03:45:03.529Z,84.04
2018-01-29T03:46:03.523Z,84.61
2018-01-29T03:47:03.517Z,84.70
2018-01-29T03:48:03.512Z,84.70
2018-01-29T03:49:03.506Z,84.70
2018-01-29T03:50:03.499Z,84.70
2018-01-29T03:51:03.495Z,85.08
2018-01-29T03:52:03.487Z,85.08
2018-01-29T03:53:03.481Z,85.36
2018-01-29T03:54:03.475Z,85.17
2018-01-29T03:55:03.471Z,85.17
2018-01-29T03:56:03.465Z,85.46
2018-01-29T03:57:03.459Z,86.03
2018-01-29T03:58:03.452Z,84.99
2018-01-29T03:59:03.447Z,84.70
2018-01-29T04:00:03.443Z,85.08
2018-01-29T04:01:03.436Z,84.70
2018-01-29T04:02:03.428Z,85.65
2018-01-29T04:03:03.423Z,85.74
2018-01-29T04:04:03.417Z,85.08
2018-01-29T04:05:03.411Z,84.99
2018-01-29T04:06:03.404Z,86.12
2018-01-29T04:07:03.400Z,85.36
2018-01-29T04:08:03.393Z,85.46
2018-01-29T04:09:03.386Z,85.84
2018-01-29T04:10:03.380Z,85.55
2018-01-29T04:11:03.374Z,85.65
2018-01-29T04:12:03.367Z,84.89
2018-01-29T04:13:03.363Z,85.08
2018-01-29T04:14:03.357Z,84.99
2018-01-29T04:15:03.350Z,84.80
2018-01-29T04:16:03.344Z,84.80
2018-01-29T04:17:03.356Z,85.27
2018-01-29T04:18:03.331Z,84.99
2018-01-29T04:19:03.326Z,84.99
2018-01-29T04:20:03.321Z,85.08
2018-01-29T04:21:03.316Z,85.74
2018-01-29T04:22:03.307Z,85.46
2018-01-29T04:23:03.300Z,85.93
2018-01-29T04:24:03.302Z,85.46
2018-01-29T04:25:03.293Z,85.55
2018-01-29T04:26:03.282Z,85.74
2018-01-29T04:27:03.278Z,86.31
2018-01-29T04:28:03.272Z,86.41
2018-01-29T04:29:03.265Z,86.69
2018-01-29T04:30:03.263Z,86.74
2018-01-29T04:31:03.253Z,87.31
2018-01-29T04:32:03.246Z,87.35
2018-01-29T04:33:03.241Z,86.79
2018-01-29T04:34:03.234Z,86.83
2018-01-29T04:35:03.228Z,87.21
2018-01-29T04:36:03.222Z,87.02
2018-01-29T04:37:03.216Z,87.59
2018-01-29T04:38:03.209Z,87.40
2018-01-29T04:39:03.203Z,86.93
2018-01-29T04:40:03.197Z,87.12
2018-01-29T04:41:03.191Z,86.93
2018-01-29T04:42:03.182Z,87.59
2018-01-29T04:43:03.177Z,87.88
2018-01-29T04:44:03.171Z,87.50
2018-01-29T04:45:03.165Z,87.98
2018-01-29T04:46:03.158Z,87.69
2018-01-29T04:47:03.151Z,87.98
2018-01-29T04:48:03.146Z,87.69
2018-01-29T04:49:03.146Z,87.31
2018-01-29T04:50:03.135Z,87.21
2018-01-29T04:51:03.126Z,87.21
2018-01-29T04:52:03.122Z,87.16
2018-01-29T04:53:03.114Z,86.50
2018-01-29T04:54:03.107Z,87.16
2018-01-29T04:55:03.101Z,86.79
2018-01-29T04:56:03.095Z,86.88
2018-01-29T04:57:03.088Z,86.79
2018-01-29T04:58:03.081Z,86.69
2018-01-29T04:59:03.075Z,86.79
2018-01-29T05:00:03.071Z,86.60
2018-01-29T05:01:03.363Z,86.98
2018-01-29T05:02:03.057Z,86.79
2018-01-29T05:03:03.051Z,86.79
2018-01-29T05:04:03.045Z,87.16
2018-01-29T05:05:03.040Z,86.88
2018-01-29T05:06:03.281Z,86.74
2018-01-29T05:07:03.025Z,87.35
2018-01-29T05:08:03.019Z,86.98
2018-01-29T05:09:03.012Z,86.98
2018-01-29T05:10:03.006Z,87.16
2018-01-29T05:11:03.001Z,86.79
2018-01-29T05:12:02.994Z,86.98
2018-01-29T05:13:02.988Z,86.03
2018-01-29T05:14:02.983Z,86.41
2018-01-29T05:15:02.974Z,86.31
2018-01-29T05:16:02.969Z,86.41
2018-01-29T05:17:02.962Z,86.65
2018-01-29T05:18:02.955Z,86.98
2018-01-29T05:19:02.949Z,86.36
2018-01-29T05:20:02.943Z,86.83
2018-01-29T05:21:02.937Z,86.74
2018-01-29T05:22:02.929Z,86.93
2018-01-29T05:23:02.927Z,86.74
2018-01-29T05:24:02.918Z,87.02
2018-01-29T05:25:02.912Z,87.31
2018-01-29T05:26:02.905Z,87.59
2018-01-29T05:27:02.900Z,87.69
2018-01-29T05:28:02.893Z,88.35
2018-01-29T05:29:02.885Z,88.17
2018-01-29T05:30:02.883Z,87.59
2018-01-29T05:31:02.877Z,87.88
2018-01-29T05:32:02.867Z,87.88
2018-01-29T05:33:02.862Z,88.26
2018-01-29T05:34:02.853Z,88.26
2018-01-29T05:35:02.849Z,88.40
2018-01-29T05:36:02.842Z,87.92
2018-01-29T05:37:02.835Z,87.35
2018-01-29T05:38:02.828Z,86.79
2018-01-29T05:39:02.822Z,86.79
2018-01-29T05:40:02.864Z,86.12
2018-01-29T05:41:02.810Z,86.60
2018-01-29T05:42:02.802Z,86.03
2018-01-29T05:43:02.796Z,86.12
2018-01-29T05:44:02.790Z,85.84
2018-01-29T05:45:02.785Z,85.65
2018-01-29T05:46:02.778Z,85.74
2018-01-29T05:47:02.771Z,85.74
2018-01-29T05:48:02.768Z,85.55
2018-01-29T05:49:02.758Z,85.93
2018-01-29T05:50:02.752Z,86.12
2018-01-29T05:51:02.745Z,86.03
2018-01-29T05:52:02.739Z,85.65
2018-01-29T05:53:02.734Z,85.74
2018-01-29T05:54:02.726Z,85.93
2018-01-29T05:55:02.719Z,86.12
2018-01-29T05:56:02.713Z,86.50
2018-01-29T05:57:02.708Z,86.31
2018-01-29T05:58:02.703Z,86.41
2018-01-29T05:59:02.694Z,86.69
2018-01-29T06:00:02.688Z,86.08
2018-01-29T06:01:02.682Z,86.46
2018-01-29T06:02:02.675Z,86.41
2018-01-29T06:03:02.669Z,86.41
2018-01-29T06:04:02.662Z,85.65
2018-01-29T06:05:02.656Z,85.74
2018-01-29T06:06:02.650Z,85.65
2018-01-29T06:07:02.644Z,85.93
2018-01-29T06:08:02.637Z,86.22
2018-01-29T06:09:02.631Z,86.18
2018-01-29T06:10:02.625Z,86.69
2018-01-29T06:11:02.620Z,86.98
2018-01-29T06:12:02.612Z,86.60
2018-01-29T06:13:02.605Z,86.83
2018-01-29T06:14:02.600Z,86.93
2018-01-29T06:15:02.594Z,86.46
2018-01-29T06:16:02.587Z,86.55
2018-01-29T06:17:02.581Z,86.83
2018-01-29T06:18:02.574Z,87.16
2018-01-29T06:19:02.566Z,86.98
2018-01-29T06:20:02.563Z,86.41
2018-01-29T06:21:02.557Z,85.65
2018-01-29T06:22:02.547Z,86.03
2018-01-29T06:23:02.541Z,85.55
2018-01-29T06:24:02.535Z,85.55
2018-01-29T06:25:02.529Z,85.84
2018-01-29T06:26:02.522Z,84.99
2018-01-29T06:27:02.516Z,85.08
2018-01-29T06:28:02.516Z,84.99
2018-01-29T06:29:02.503Z,84.70
2018-01-29T06:30:02.498Z,84.80
2018-01-29T06:31:02.491Z,85.27
2018-01-29T06:32:02.485Z,85.17
2018-01-29T06:33:02.479Z,84.70
2018-01-29T06:34:02.472Z,85.55
2018-01-29T06:35:02.465Z,85.46
2018-01-29T06:36:02.465Z,85.74
2018-01-29T06:37:02.455Z,85.84
2018-01-29T06:38:02.445Z,86.12
2018-01-29T06:39:02.440Z,85.93
2018-01-29T06:40:02.434Z,86.22
2018-01-29T06:41:02.429Z,86.50
2018-01-29T06:42:02.420Z,86.12
2018-01-29T06:43:02.414Z,85.84
2018-01-29T06:44:02.409Z,86.03
2018-01-29T06:45:02.409Z,85.84
2018-01-29T06:46:02.395Z,85.36
2018-01-29T06:47:02.389Z,85.27
2018-01-29T06:48:02.385Z,85.46
2018-01-29T06:49:02.378Z,85.55
2018-01-29T06:50:02.370Z,85.46
2018-01-29T06:51:02.362Z,85.74
2018-01-29T06:52:02.358Z,85.36
2018-01-29T06:53:02.354Z,85.55
2018-01-29T06:54:02.343Z,85.46
2018-01-29T06:55:02.338Z,85.17
2018-01-29T06:56:02.332Z,85.27
2018-01-29T06:57:02.326Z,84.89
2018-01-29T06:58:02.318Z,84.89
2018-01-29T06:59:02.312Z,84.80
2018-01-29T07:00:02.333Z,84.89
2018-01-29T07:01:02.301Z,84.32
2018-01-29T07:02:02.293Z,84.32
2018-01-29T07:03:02.288Z,84.04
2018-01-29T07:04:02.281Z,84.13
2018-01-29T07:05:02.275Z,83.66
2018-01-29T07:06:02.268Z,84.13
2018-01-29T07:07:02.262Z,84.23
2018-01-29T07:08:02.255Z,84.51
2018-01-29T07:09:02.249Z,84.89
2018-01-29T07:10:02.243Z,85.08
2018-01-29T07:11:02.237Z,84.70
2018-01-29T07:12:02.231Z,84.70
2018-01-29T07:13:02.229Z,84.70
2018-01-29T07:14:02.217Z,84.23
2018-01-29T07:15:02.214Z,84.13
2018-01-29T07:16:02.205Z,84.32
2018-01-29T07:17:02.201Z,83.89
2018-01-29T07:18:02.194Z,82.94
2018-01-29T07:19:02.188Z,81.43
2018-01-29T07:20:02.183Z,80.80
2018-01-29T07:21:02.180Z,79.66
2018-01-29T07:22:02.173Z,79.10
2018-01-29T07:23:02.166Z,78.72
2018-01-29T07:24:02.161Z,78.91
2018-01-29T07:25:02.156Z,79.19
2018-01-29T07:26:02.151Z,79.10
2018-01-29T07:27:02.146Z,79.38
2018-01-29T07:28:02.140Z,78.24
2018-01-29T07:29:02.136Z,77.81
2018-01-29T07:30:02.131Z,77.05
2018-01-29T07:31:02.126Z,76.76
2018-01-29T07:32:02.137Z,76.48
2018-01-29T07:33:02.117Z,75.62
2018-01-29T07:34:02.113Z,74.43
2018-01-29T07:35:02.109Z,73.19
2018-01-29T07:36:02.104Z,73.00
2018-01-29T07:37:02.101Z,73.00
2018-01-29T07:38:02.095Z,72.47
2018-01-29T07:39:02.091Z,71.23
2018-01-29T07:40:02.087Z,70.57
2018-01-29T07:41:02.085Z,69.18
2018-01-29T07:42:02.080Z,68.90
2018-01-29T07:43:02.079Z,68.23
2018-01-29T07:44:02.076Z,68.80
2018-01-29T07:45:02.074Z,69.27
2018-01-29T07:46:02.072Z,68.61
2018-01-29T07:47:02.072Z,67.22
2018-01-29T07:48:02.074Z,66.39
2018-01-29T07:49:02.070Z,64.40
2018-01-29T07:50:02.069Z,62.53
2018-01-29T07:51:02.068Z,61.04
2018-01-29T07:52:02.069Z,59.74
2018-01-29T07:53:02.070Z,58.21
2018-01-29T07:54:02.071Z,56.36
2018-01-29T07:55:02.073Z,55.12
2018-01-29T07:56:02.075Z,53.62
2018-01-29T07:57:02.078Z,52.86
2018-01-29T07:58:02.080Z,51.90
2018-01-29T07:59:02.084Z,51.62
2018-01-29T08:00:02.087Z,50.88
2018-01-29T08:01:02.091Z,50.59
2018-01-29T08:02:02.093Z,50.67
2018-01-29T08:03:02.099Z,51.68
2018-01-29T08:04:02.102Z,53.31
2018-01-29T08:05:02.105Z,54.43
2018-01-29T08:06:02.109Z,55.07
2018-01-29T08:07:02.113Z,55.73
2018-01-29T08:08:02.117Z,55.92
2018-01-29T08:09:02.126Z,54.80
2018-01-29T08:10:02.127Z,53.59
2018-01-29T08:11:02.131Z,52.57
2018-01-29T08:12:02.136Z,50.88
2018-01-29T08:13:02.142Z,49.18
2018-01-29T08:14:02.147Z,48.78
2018-01-29T08:15:02.155Z,49.07
2018-01-29T08:16:02.161Z,49.26
2018-01-29T08:17:02.166Z,48.88
2018-01-29T08:18:02.173Z,48.71
2018-01-29T08:19:02.456Z,47.37
2018-01-29T08:20:02.187Z,46.89
2018-01-29T08:21:02.193Z,46.51
2018-01-29T08:22:02.200Z,46.89
2018-01-29T08:23:02.209Z,47.27
2018-01-29T08:24:02.216Z,47.18
2018-01-29T08:25:02.224Z,47.08
2018-01-29T08:26:02.231Z,47.47
2018-01-29T08:27:02.237Z,47.08
2018-01-29T08:28:02.245Z,47.25
2018-01-29T08:29:02.253Z,48.21
2018-01-29T08:30:02.259Z,49.04
2018-01-29T08:31:02.266Z,49.59
2018-01-29T08:32:02.273Z,53.00
2018-01-29T08:33:02.280Z,54.94
2018-01-29T08:34:02.284Z,57.01
2018-01-29T08:35:02.290Z,59.55
2018-01-29T08:36:02.296Z,61.93
2018-01-29T08:37:02.301Z,62.85
2018-01-29T08:38:02.305Z,63.07
2018-01-29T08:39:02.308Z,62.49
2018-01-29T08:40:02.312Z,62.02
2018-01-29T08:41:02.314Z,60.44
2018-01-29T08:42:02.315Z,60.05
2018-01-29T08:43:02.320Z,60.44
2018-01-29T08:44:02.321Z,59.51
2018-01-29T08:45:02.327Z,59.61
2018-01-29T08:46:02.331Z,59.23
2018-01-29T08:47:02.331Z,59.99
2018-01-29T08:48:02.334Z,58.75
2018-01-29T08:49:02.339Z,57.92
2018-01-29T08:50:02.341Z,57.07
2018-01-29T08:51:02.344Z,57.82
2018-01-29T08:52:02.346Z,56.59
2018-01-29T08:53:02.350Z,57.16
2018-01-29T08:54:02.354Z,57.64
2018-01-29T08:55:02.356Z,57.45
2018-01-29T08:56:02.361Z,57.89
2018-01-29T08:57:02.364Z,58.75
2018-01-29T08:58:02.365Z,60.44
2018-01-29T08:59:02.367Z,60.72
2018-01-29T09:00:02.368Z,61.16
2018-01-29T09:01:02.372Z,62.69
2018-01-29T09:02:02.373Z,63.54
2018-01-29T09:03:02.373Z,63.83
2018-01-29T09:04:02.376Z,63.54
2018-01-29T09:05:02.376Z,63.64
2018-01-29T09:06:02.376Z,63.73
2018-01-29T09:07:02.377Z,63.54
2018-01-29T09:08:02.378Z,62.34
2018-01-29T09:09:02.379Z,60.75
2018-01-29T09:10:02.379Z,59.70
2018-01-29T09:11:02.379Z,59.35
2018-01-29T09:12:02.381Z,58.30
2018-01-29T09:13:02.380Z,58.02
2018-01-29T09:14:02.381Z,58.30
2018-01-29T09:15:02.381Z,59.32
2018-01-29T09:16:02.382Z,60.18
2018-01-29T09:17:02.383Z,60.91
2018-01-29T09:18:02.382Z,62.05
2018-01-29T09:19:02.384Z,63.39
2018-01-29T09:20:02.384Z,63.01
2018-01-29T09:21:02.385Z,62.27
2018-01-29T09:22:02.384Z,62.18
2018-01-29T09:23:02.385Z,60.75
2018-01-29T09:24:02.386Z,60.40
2018-01-29T09:25:02.387Z,60.30
2018-01-29T09:26:02.385Z,60.08
2018-01-29T09:27:02.386Z,59.80
2018-01-29T09:28:02.386Z,60.66
2018-01-29T09:29:02.387Z,61.04
2018-01-29T09:30:02.388Z,60.94
2018-01-29T09:31:02.388Z,60.66
2018-01-29T09:32:02.391Z,60.75
2018-01-29T09:33:02.389Z,62.27
2018-01-29T09:34:02.390Z,63.01
2018-01-29T09:35:02.391Z,63.76
2018-01-29T09:36:02.390Z,63.76
2018-01-29T09:37:02.390Z,62.18
2018-01-29T09:38:02.391Z,60.94
2018-01-29T09:39:02.398Z,60.56
2018-01-29T09:40:02.393Z,61.54
2018-01-29T09:41:02.394Z,60.59
2018-01-29T09:42:02.395Z,58.43
2018-01-29T09:43:02.395Z,57.57
2018-01-29T09:44:02.396Z,56.55
2018-01-29T09:45:02.398Z,57.12
2018-01-29T09:46:02.397Z,56.65
2018-01-29T09:47:02.400Z,55.98
2018-01-29T09:48:02.402Z,54.77
2018-01-29T09:49:02.404Z,54.38
2018-01-29T09:50:02.405Z,54.74
2018-01-29T09:51:02.408Z,53.81
2018-01-29T09:52:02.411Z,54.07
2018-01-29T09:53:02.714Z,54.64
2018-01-29T09:54:02.414Z,54.74
2018-01-29T09:55:02.422Z,54.96
2018-01-29T09:56:02.421Z,54.64
2018-01-29T09:57:02.425Z,55.02
2018-01-29T09:58:02.676Z,56.14
2018-01-29T09:59:02.429Z,56.62
2018-01-29T10:00:02.431Z,57.09
2018-01-29T10:01:02.434Z,57.38
2018-01-29T10:02:02.436Z,56.81
2018-01-29T10:03:02.438Z,55.98
2018-01-29T10:04:02.441Z,55.41
2018-01-29T10:05:02.444Z,55.12
2018-01-29T10:06:02.446Z,54.83
2018-01-29T10:07:02.449Z,55.02
2018-01-29T10:08:02.452Z,54.26
2018-01-29T10:09:02.461Z,54.38
2018-01-29T10:10:02.460Z,54.48
2018-01-29T10:11:02.460Z,54.13
2018-01-29T10:12:02.465Z,53.74
2018-01-29T10:13:02.468Z,53.08
2018-01-29T10:14:02.470Z,52.50
2018-01-29T10:15:02.476Z,52.62
2018-01-29T10:16:02.478Z,51.00
2018-01-29T10:17:02.482Z,50.64
2018-01-29T10:18:02.486Z,50.07
2018-01-29T10:19:02.491Z,49.59
2018-01-29T10:20:02.495Z,49.43
2018-01-29T10:21:02.502Z,50.19
2018-01-29T10:22:02.508Z,50.19
2018-01-29T10:23:02.523Z,51.15
2018-01-29T10:24:02.512Z,50.09
2018-01-29T10:25:02.514Z,50.00
2018-01-29T10:26:02.520Z,50.76
2018-01-29T10:27:02.523Z,49.62
2018-01-29T10:28:02.527Z,49.16
2018-01-29T10:29:02.533Z,48.11
2018-01-29T10:30:02.537Z,47.44
2018-01-29T10:31:02.541Z,47.08
2018-01-29T10:32:02.548Z,46.15
2018-01-29T10:33:02.552Z,45.86
2018-01-29T10:34:02.558Z,45.69
2018-01-29T10:35:02.563Z,44.71
2018-01-29T10:36:02.570Z,45.19
2018-01-29T10:37:02.574Z,45.38
2018-01-29T10:38:02.580Z,44.81
2018-01-29T10:39:02.587Z,44.45
2018-01-29T10:40:02.594Z,43.97
2018-01-29T10:41:02.602Z,44.35
2018-01-29T10:42:02.607Z,44.73
2018-01-29T10:43:02.615Z,45.02
2018-01-29T10:44:02.624Z,44.16
2018-01-29T10:45:02.630Z,44.66
2018-01-29T10:46:02.637Z,43.99
2018-01-29T10:47:02.645Z,42.57
2018-01-29T10:48:02.656Z,42.02
2018-01-29T10:49:02.664Z,41.73
2018-01-29T10:50:02.672Z,42.02
2018-01-29T10:51:02.680Z,41.85
2018-01-29T10:52:02.689Z,42.02
2018-01-29T10:53:02.696Z,41.25
2018-01-29T10:54:02.706Z,41.54
2018-01-29T10:55:02.715Z,41.56
2018-01-29T10:56:02.725Z,40.70
2018-01-29T10:57:02.734Z,40.23
2018-01-29T10:58:02.744Z,39.54
2018-01-29T10:59:02.753Z,40.22
2018-01-29T11:00:02.763Z,40.50
2018-01-29T11:01:02.773Z,41.83
2018-01-29T11:02:02.782Z,42.23
2018-01-29T11:03:02.793Z,41.06
2018-01-29T11:04:02.802Z,40.67
2018-01-29T11:05:02.811Z,39.91
2018-01-29T11:06:02.821Z,40.00
2018-01-29T11:07:02.831Z,39.91
2018-01-29T11:08:02.840Z,40.29
2018-01-29T11:09:02.853Z,41.80
2018-01-29T11:10:02.861Z,41.80
2018-01-29T11:11:02.870Z,40.48
2018-01-29T11:12:02.880Z,40.00
2018-01-29T11:13:02.892Z,39.53
2018-01-29T11:14:02.898Z,39.79
2018-01-29T11:15:02.908Z,40.56
2018-01-29T11:16:02.917Z,41.40
2018-01-29T11:17:02.926Z,43.70
2018-01-29T11:18:02.934Z,42.91
2018-01-29T11:19:02.943Z,43.77
2018-01-29T11:20:02.951Z,43.10
2018-01-29T11:21:02.960Z,42.91
2018-01-29T11:22:02.967Z,42.63
2018-01-29T11:23:02.975Z,43.39
2018-01-29T11:24:02.983Z,43.87
2018-01-29T11:25:02.992Z,42.34
2018-01-29T11:26:03.000Z,41.97
2018-01-29T11:27:03.008Z,42.74
2018-01-29T11:28:03.014Z,43.60
2018-01-29T11:29:03.022Z,42.96
2018-01-29T11:30:03.030Z,42.47
2018-01-29T11:31:03.036Z,41.93
2018-01-29T11:32:03.044Z,41.33
2018-01-29T11:33:03.051Z,40.58
2018-01-29T11:34:03.058Z,40.10
2018-01-29T11:35:03.066Z,40.39
2018-01-29T11:36:03.076Z,40.56
2018-01-29T11:37:03.083Z,41.80
2018-01-29T11:38:03.088Z,40.37
2018-01-29T11:39:03.156Z,41.33
2018-01-29T11:40:03.104Z,40.08
2018-01-29T11:41:03.112Z,40.27
2018-01-29T11:42:03.120Z,41.11
2018-01-29T11:43:03.129Z,41.50
2018-01-29T11:44:03.135Z,41.50
2018-01-29T11:45:03.144Z,41.69
2018-01-29T11:46:03.149Z,40.47
2018-01-29T11:47:03.158Z,39.89
2018-01-29T11:48:03.167Z,39.31
2018-01-29T11:49:03.173Z,38.18
2018-01-29T11:50:03.180Z,38.09
2018-01-29T11:51:03.187Z,38.10
2018-01-29T11:52:03.194Z,37.32
2018-01-29T11:53:03.201Z,37.41
2018-01-29T11:54:03.207Z,38.47
2018-01-29T11:55:03.269Z,38.35
2018-01-29T11:56:03.222Z,40.06
2018-01-29T11:57:03.229Z,39.58
2018-01-29T11:58:03.235Z,40.83
2018-01-29T11:59:03.243Z,41.40
2018-01-29T12:00:03.250Z,41.50
2018-01-29T12:01:03.258Z,41.60
2018-01-29T12:02:03.266Z,41.40
2018-01-29T12:03:03.269Z,41.23
2018-01-29T12:04:03.278Z,41.80
2018-01-29T12:05:03.290Z,40.10
2018-01-29T12:06:03.291Z,38.56
2018-01-29T12:07:03.297Z,38.47
2018-01-29T12:08:03.306Z,39.01
2018-01-29T12:09:03.314Z,40.06
2018-01-29T12:10:03.320Z,41.48
2018-01-29T12:11:03.331Z,41.19
2018-01-29T12:12:03.335Z,42.24
2018-01-29T12:13:03.343Z,42.34
2018-01-29T12:14:03.350Z,42.24
2018-01-29T12:15:03.357Z,41.28
2018-01-29T12:16:03.366Z,41.67
2018-01-29T12:17:03.376Z,42.05
2018-01-29T12:18:03.378Z,42.82
2018-01-29T12:19:03.386Z,42.82
2018-01-29T12:20:03.394Z,42.53
2018-01-29T12:21:03.401Z,43.30
2018-01-29T12:22:03.407Z,42.82
2018-01-29T12:23:03.414Z,43.10
2018-01-29T12:24:03.423Z,42.53
2018-01-29T12:25:03.436Z,43.68
2018-01-29T12:26:03.435Z,44.83
2018-01-29T12:27:03.442Z,45.43
2018-01-29T12:28:03.449Z,43.80
2018-01-29T12:29:03.465Z,43.60
2018-01-29T12:30:03.465Z,42.46
2018-01-29T12:31:03.469Z,41.90
2018-01-29T12:32:03.477Z,41.52
2018-01-29T12:33:03.483Z,41.71
2018-01-29T12:34:03.489Z,41.02
2018-01-29T12:35:03.497Z,41.19
2018-01-29T12:36:03.516Z,42.34
2018-01-29T12:37:03.511Z,42.24
2018-01-29T12:38:03.517Z,42.91
2018-01-29T12:39:03.525Z,43.77
2018-01-29T12:40:03.531Z,43.27
2018-01-29T12:41:03.538Z,43.76
2018-01-29T12:42:03.545Z,43.66
2018-01-29T12:43:03.555Z,43.39
2018-01-29T12:44:03.559Z,45.02
2018-01-29T12:45:03.566Z,43.77
2018-01-29T12:46:03.575Z,43.01
2018-01-29T12:47:03.580Z,42.82
2018-01-29T12:48:03.586Z,42.82
2018-01-29T12:49:03.594Z,43.10
2018-01-29T12:50:03.600Z,42.91
2018-01-29T12:51:03.607Z,43.01
2018-01-29T12:52:03.615Z,42.82